sensor_id;sensor_type;location;lat;lon;timestamp;P1;durP1;ratioP1;P2;durP2;ratioP2
29006;SDS011;16104;48.642;9.008;2022-07-06T01:05:13;4.22;;;1.80;;
29006;SDS011;16104;48.642;9.008;2022-07-06T01:10:10;3.42;;;2.17;;
29006;SDS011;16104;48.642;9.008;2022-07-06T01:15:09;4.78;;;2.45;;
29006;SDS011;16104;48.642;9.008;2022-07-06T02:01:14;3.58;;;1.90;;
29006;SDS011;16104;48.642;9.008;2022-07-06T02:06:13;2.10;;;1.90;;
29006;SDS011;16104;48.642;9.008;2022-07-06T02:11:09;3.42;;;1.88;;
29006;SDS011;16104;48.642;9.008;2022-07-06T03:01:53;2.78;;;2.08;;
29006;SDS011;16104;48.642;9.008;2022-07-06T03:06:49;3.55;;;2.50;;
29006;SDS011;16104;48.642;9.008;2022-07-06T03:11:44;3.42;;;2.00;;
29006;SDS011;16104;48.642;9.008;2022-07-06T03:16:40;5.63;;;2.67;;
29006;SDS011;16104;48.642;9.008;2022-07-06T03:21:35;3.65;;;2.70;;
29006;SDS011;16104;48.642;9.008;2022-07-06T03:26:31;5.05;;;2.85;;
29006;SDS011;16104;48.642;9.008;2022-07-06T03:31:26;3.25;;;2.50;;
29006;SDS011;16104;48.642;9.008;2022-07-06T03:36:22;5.53;;;2.90;;
29006;SDS011;16104;48.642;9.008;2022-07-06T03:41:17;2.97;;;2.67;;
29006;SDS011;16104;48.642;9.008;2022-07-06T03:46:13;5.43;;;3.00;;
29006;SDS011;16104;48.642;9.008;2022-07-06T03:51:09;3.17;;;2.70;;
29006;SDS011;16104;48.642;9.008;2022-07-06T03:56:06;3.03;;;2.72;;
29006;SDS011;16104;48.642;9.008;2022-07-06T04:01:20;4.03;;;3.08;;
29006;SDS011;16104;48.642;9.008;2022-07-06T04:06:15;7.53;;;2.63;;
29006;SDS011;16104;48.642;9.008;2022-07-06T04:11:11;2.97;;;2.67;;
29006;SDS011;16104;48.642;9.008;2022-07-06T04:16:07;4.85;;;2.90;;
29006;SDS011;16104;48.642;9.008;2022-07-06T04:21:02;3.00;;;2.45;;
29006;SDS011;16104;48.642;9.008;2022-07-06T04:25:58;3.35;;;2.85;;
29006;SDS011;16104;48.642;9.008;2022-07-06T04:30:54;7.78;;;3.08;;
29006;SDS011;16104;48.642;9.008;2022-07-06T04:35:49;4.35;;;3.65;;
29006;SDS011;16104;48.642;9.008;2022-07-06T04:40:45;4.47;;;3.42;;
29006;SDS011;16104;48.642;9.008;2022-07-06T04:45:43;5.30;;;3.30;;
29006;SDS011;16104;48.642;9.008;2022-07-06T04:50:39;5.28;;;3.33;;
29006;SDS011;16104;48.642;9.008;2022-07-06T04:55:35;6.78;;;4.00;;
29006;SDS011;16104;48.642;9.008;2022-07-06T05:00:30;5.10;;;3.40;;
29006;SDS011;16104;48.642;9.008;2022-07-06T05:05:26;9.52;;;4.07;;
29006;SDS011;16104;48.642;9.008;2022-07-06T05:10:22;7.07;;;3.92;;
29006;SDS011;16104;48.642;9.008;2022-07-06T05:15:17;6.22;;;4.30;;
29006;SDS011;16104;48.642;9.008;2022-07-06T05:20:13;6.68;;;4.15;;
29006;SDS011;16104;48.642;9.008;2022-07-06T05:25:08;5.00;;;3.97;;
29006;SDS011;16104;48.642;9.008;2022-07-06T05:30:04;6.30;;;4.45;;
29006;SDS011;16104;48.642;9.008;2022-07-06T05:35:00;8.05;;;3.83;;
29006;SDS011;16104;48.642;9.008;2022-07-06T05:39:56;5.05;;;3.95;;
29006;SDS011;16104;48.642;9.008;2022-07-06T05:44:54;6.22;;;4.22;;
29006;SDS011;16104;48.642;9.008;2022-07-06T05:49:51;8.30;;;3.92;;
29006;SDS011;16104;48.642;9.008;2022-07-06T05:55:05;5.43;;;3.42;;
29006;SDS011;16104;48.642;9.008;2022-07-06T06:00:02;7.22;;;3.65;;
29006;SDS011;16104;48.642;9.008;2022-07-06T06:05:00;6.63;;;3.47;;
29006;SDS011;16104;48.642;9.008;2022-07-06T06:09:55;5.22;;;3.83;;
29006;SDS011;16104;48.642;9.008;2022-07-06T06:14:51;7.05;;;3.40;;
29006;SDS011;16104;48.642;9.008;2022-07-06T06:19:46;5.47;;;3.45;;
29006;SDS011;16104;48.642;9.008;2022-07-06T06:24:41;8.07;;;3.70;;
29006;SDS011;16104;48.642;9.008;2022-07-06T06:29:37;7.45;;;3.22;;
29006;SDS011;16104;48.642;9.008;2022-07-06T06:34:33;5.20;;;2.97;;
29006;SDS011;16104;48.642;9.008;2022-07-06T06:39:29;5.88;;;3.05;;
29006;SDS011;16104;48.642;9.008;2022-07-06T06:44:25;4.28;;;3.20;;
29006;SDS011;16104;48.642;9.008;2022-07-06T06:49:20;4.78;;;3.60;;
29006;SDS011;16104;48.642;9.008;2022-07-06T06:54:16;5.43;;;3.05;;
29006;SDS011;16104;48.642;9.008;2022-07-06T06:59:11;4.00;;;2.85;;
29006;SDS011;16104;48.642;9.008;2022-07-06T07:04:06;8.20;;;3.30;;
29006;SDS011;16104;48.642;9.008;2022-07-06T07:09:02;5.25;;;3.05;;
29006;SDS011;16104;48.642;9.008;2022-07-06T07:13:58;11.80;;;2.60;;
29006;SDS011;16104;48.642;9.008;2022-07-06T07:18:55;6.10;;;2.95;;
29006;SDS011;16104;48.642;9.008;2022-07-06T07:23:51;4.55;;;2.60;;
29006;SDS011;16104;48.642;9.008;2022-07-06T07:28:46;3.53;;;2.67;;
29006;SDS011;16104;48.642;9.008;2022-07-06T07:33:42;8.40;;;3.17;;
29006;SDS011;16104;48.642;9.008;2022-07-06T07:38:37;4.28;;;2.63;;
29006;SDS011;16104;48.642;9.008;2022-07-06T07:43:33;3.13;;;2.50;;
29006;SDS011;16104;48.642;9.008;2022-07-06T07:48:28;5.22;;;2.63;;
29006;SDS011;16104;48.642;9.008;2022-07-06T07:53:24;4.07;;;2.20;;
29006;SDS011;16104;48.642;9.008;2022-07-06T07:58:19;2.97;;;2.30;;
29006;SDS011;16104;48.642;9.008;2022-07-06T08:03:15;3.90;;;2.42;;
29006;SDS011;16104;48.642;9.008;2022-07-06T08:08:10;5.63;;;2.38;;
29006;SDS011;16104;48.642;9.008;2022-07-06T08:13:06;3.08;;;2.25;;
29006;SDS011;16104;48.642;9.008;2022-07-06T08:18:02;3.90;;;2.50;;
29006;SDS011;16104;48.642;9.008;2022-07-06T08:22:58;3.17;;;2.10;;
29006;SDS011;16104;48.642;9.008;2022-07-06T08:27:54;2.88;;;2.00;;
29006;SDS011;16104;48.642;9.008;2022-07-06T08:32:49;4.15;;;2.22;;
29006;SDS011;16104;48.642;9.008;2022-07-06T08:37:45;4.35;;;2.20;;
29006;SDS011;16104;48.642;9.008;2022-07-06T08:42:40;4.85;;;2.42;;
29006;SDS011;16104;48.642;9.008;2022-07-06T08:47:37;3.58;;;2.63;;
29006;SDS011;16104;48.642;9.008;2022-07-06T08:52:34;3.75;;;2.53;;
29006;SDS011;16104;48.642;9.008;2022-07-06T08:57:30;2.88;;;2.38;;
29006;SDS011;16104;48.642;9.008;2022-07-06T09:02:25;2.47;;;1.92;;
29006;SDS011;16104;48.642;9.008;2022-07-06T09:07:22;5.07;;;2.33;;
29006;SDS011;16104;48.642;9.008;2022-07-06T09:12:18;3.25;;;2.15;;
29006;SDS011;16104;48.642;9.008;2022-07-06T09:17:14;3.72;;;2.15;;
29006;SDS011;16104;48.642;9.008;2022-07-06T09:22:09;3.90;;;1.70;;
29006;SDS011;16104;48.642;9.008;2022-07-06T09:27:20;6.38;;;2.08;;
29006;SDS011;16104;48.642;9.008;2022-07-06T09:32:19;3.90;;;2.03;;
29006;SDS011;16104;48.642;9.008;2022-07-06T09:37:16;7.38;;;2.00;;
29006;SDS011;16104;48.642;9.008;2022-07-06T09:42:11;5.72;;;1.90;;
29006;SDS011;16104;48.642;9.008;2022-07-06T09:47:08;5.07;;;2.00;;
29006;SDS011;16104;48.642;9.008;2022-07-06T09:52:05;6.10;;;2.20;;
29006;SDS011;16104;48.642;9.008;2022-07-06T09:57:02;4.32;;;2.40;;
29006;SDS011;16104;48.642;9.008;2022-07-06T10:02:02;2.28;;;1.80;;
29006;SDS011;16104;48.642;9.008;2022-07-06T10:07:02;9.80;;;2.13;;
29006;SDS011;16104;48.642;9.008;2022-07-06T10:17:01;4.85;;;2.13;;
29006;SDS011;16104;48.642;9.008;2022-07-06T10:22:00;3.60;;;2.40;;
29006;SDS011;16104;48.642;9.008;2022-07-06T10:26:58;5.35;;;2.00;;
29006;SDS011;16104;48.642;9.008;2022-07-06T10:31:55;6.85;;;2.30;;
29006;SDS011;16104;48.642;9.008;2022-07-06T10:36:51;3.88;;;1.52;;
29006;SDS011;16104;48.642;9.008;2022-07-06T10:41:49;5.82;;;2.17;;
29006;SDS011;16104;48.642;9.008;2022-07-06T10:46:55;5.82;;;2.10;;
29006;SDS011;16104;48.642;9.008;2022-07-06T10:51:52;2.00;;;1.80;;
29006;SDS011;16104;48.642;9.008;2022-07-06T10:56:49;5.85;;;2.25;;
29006;SDS011;16104;48.642;9.008;2022-07-06T11:07:13;7.03;;;2.72;;
29006;SDS011;16104;48.642;9.008;2022-07-06T11:12:19;3.90;;;2.05;;
29006;SDS011;16104;48.642;9.008;2022-07-06T11:17:15;3.00;;;2.22;;
29006;SDS011;16104;48.642;9.008;2022-07-06T11:22:12;4.40;;;2.90;;
29006;SDS011;16104;48.642;9.008;2022-07-06T11:27:10;3.22;;;2.78;;
29006;SDS011;16104;48.642;9.008;2022-07-06T11:32:07;4.93;;;2.80;;
29006;SDS011;16104;48.642;9.008;2022-07-06T11:37:07;5.50;;;2.60;;
29006;SDS011;16104;48.642;9.008;2022-07-06T11:42:04;4.72;;;2.08;;
29006;SDS011;16104;48.642;9.008;2022-07-06T11:46:59;5.20;;;2.30;;
29006;SDS011;16104;48.642;9.008;2022-07-06T11:51:58;4.18;;;2.40;;
29006;SDS011;16104;48.642;9.008;2022-07-06T11:56:54;6.28;;;2.85;;
29006;SDS011;16104;48.642;9.008;2022-07-06T12:01:58;4.32;;;2.55;;
29006;SDS011;16104;48.642;9.008;2022-07-06T12:07:02;5.28;;;2.40;;
29006;SDS011;16104;48.642;9.008;2022-07-06T12:12:07;4.90;;;2.50;;
29006;SDS011;16104;48.642;9.008;2022-07-06T12:17:07;4.65;;;2.40;;
29006;SDS011;16104;48.642;9.008;2022-07-06T12:22:05;4.10;;;2.50;;
29006;SDS011;16104;48.642;9.008;2022-07-06T12:27:20;5.13;;;2.50;;
29006;SDS011;16104;48.642;9.008;2022-07-06T12:32:20;4.03;;;2.50;;
29006;SDS011;16104;48.642;9.008;2022-07-06T12:37:17;11.73;;;2.60;;
29006;SDS011;16104;48.642;9.008;2022-07-06T12:42:13;3.83;;;2.20;;
29006;SDS011;16104;48.642;9.008;2022-07-06T12:47:21;3.83;;;2.33;;
29006;SDS011;16104;48.642;9.008;2022-07-06T12:52:18;7.55;;;2.10;;
29006;SDS011;16104;48.642;9.008;2022-07-06T12:57:17;4.43;;;2.28;;
29006;SDS011;16104;48.642;9.008;2022-07-06T13:02:22;7.40;;;2.17;;
29006;SDS011;16104;48.642;9.008;2022-07-06T13:07:25;2.08;;;1.85;;
29006;SDS011;16104;48.642;9.008;2022-07-06T13:12:22;3.65;;;2.20;;
29006;SDS011;16104;48.642;9.008;2022-07-06T13:17:17;3.85;;;1.95;;
29006;SDS011;16104;48.642;9.008;2022-07-06T13:22:13;3.90;;;1.90;;
29006;SDS011;16104;48.642;9.008;2022-07-06T13:27:09;1.90;;;1.80;;
29006;SDS011;16104;48.642;9.008;2022-07-06T13:32:05;4.95;;;1.90;;
29006;SDS011;16104;48.642;9.008;2022-07-06T13:37:02;3.80;;;1.88;;
29006;SDS011;16104;48.642;9.008;2022-07-06T13:41:58;4.60;;;2.08;;
29006;SDS011;16104;48.642;9.008;2022-07-06T13:46:53;5.40;;;2.03;;
29006;SDS011;16104;48.642;9.008;2022-07-06T13:51:49;2.70;;;1.95;;
29006;SDS011;16104;48.642;9.008;2022-07-06T13:56:45;3.50;;;1.90;;
29006;SDS011;16104;48.642;9.008;2022-07-06T14:01:40;4.93;;;3.85;;
29006;SDS011;16104;48.642;9.008;2022-07-06T14:06:36;2.97;;;2.40;;
29006;SDS011;16104;48.642;9.008;2022-07-06T14:11:31;7.00;;;1.90;;
29006;SDS011;16104;48.642;9.008;2022-07-06T14:16:27;4.28;;;1.88;;
29006;SDS011;16104;48.642;9.008;2022-07-06T14:21:23;6.50;;;1.70;;
29006;SDS011;16104;48.642;9.008;2022-07-06T14:26:18;5.10;;;1.77;;
29006;SDS011;16104;48.642;9.008;2022-07-06T14:31:18;2.50;;;1.63;;
29006;SDS011;16104;48.642;9.008;2022-07-06T14:36:15;5.53;;;2.53;;
29006;SDS011;16104;48.642;9.008;2022-07-06T14:41:11;3.60;;;2.00;;
29006;SDS011;16104;48.642;9.008;2022-07-06T14:46:09;2.53;;;1.60;;
29006;SDS011;16104;48.642;9.008;2022-07-06T14:51:08;6.03;;;2.97;;
29006;SDS011;16104;48.642;9.008;2022-07-06T14:56:03;4.57;;;1.80;;
29006;SDS011;16104;48.642;9.008;2022-07-06T15:00:59;5.55;;;2.60;;
29006;SDS011;16104;48.642;9.008;2022-07-06T15:05:56;3.83;;;2.60;;
29006;SDS011;16104;48.642;9.008;2022-07-06T15:10:52;6.75;;;5.82;;
29006;SDS011;16104;48.642;9.008;2022-07-06T15:15:47;5.72;;;4.55;;
29006;SDS011;16104;48.642;9.008;2022-07-06T15:20:43;2.78;;;2.08;;
29006;SDS011;16104;48.642;9.008;2022-07-06T15:25:38;2.15;;;1.58;;
29006;SDS011;16104;48.642;9.008;2022-07-06T15:30:34;4.30;;;1.85;;
29006;SDS011;16104;48.642;9.008;2022-07-06T15:35:30;6.30;;;3.70;;
29006;SDS011;16104;48.642;9.008;2022-07-06T15:40:28;2.92;;;1.92;;
29006;SDS011;16104;48.642;9.008;2022-07-06T15:45:28;2.30;;;1.83;;
29006;SDS011;16104;48.642;9.008;2022-07-06T15:50:24;3.42;;;2.58;;
29006;SDS011;16104;48.642;9.008;2022-07-06T15:55:19;2.20;;;1.63;;
29006;SDS011;16104;48.642;9.008;2022-07-06T16:00:16;4.38;;;1.45;;
29006;SDS011;16104;48.642;9.008;2022-07-06T16:05:12;2.78;;;1.45;;
29006;SDS011;16104;48.642;9.008;2022-07-06T16:10:08;1.60;;;1.30;;
29006;SDS011;16104;48.642;9.008;2022-07-06T16:15:03;3.53;;;1.30;;
29006;SDS011;16104;48.642;9.008;2022-07-06T16:20:01;2.22;;;1.40;;
29006;SDS011;16104;48.642;9.008;2022-07-06T16:24:57;1.35;;;1.10;;
29006;SDS011;16104;48.642;9.008;2022-07-06T16:29:52;4.15;;;1.40;;
29006;SDS011;16104;48.642;9.008;2022-07-06T16:34:48;1.80;;;1.30;;
29006;SDS011;16104;48.642;9.008;2022-07-06T16:39:43;3.20;;;1.20;;
29006;SDS011;16104;48.642;9.008;2022-07-06T16:44:39;2.25;;;1.20;;
29006;SDS011;16104;48.642;9.008;2022-07-06T16:49:34;1.33;;;1.00;;
29006;SDS011;16104;48.642;9.008;2022-07-06T16:54:30;2.65;;;1.20;;
29006;SDS011;16104;48.642;9.008;2022-07-06T16:59:26;1.27;;;1.17;;
29006;SDS011;16104;48.642;9.008;2022-07-06T17:04:23;1.60;;;1.08;;
29006;SDS011;16104;48.642;9.008;2022-07-06T17:09:19;1.60;;;0.90;;
29006;SDS011;16104;48.642;9.008;2022-07-06T17:14:14;1.15;;;1.02;;
29006;SDS011;16104;48.642;9.008;2022-07-06T17:19:10;2.70;;;0.98;;
29006;SDS011;16104;48.642;9.008;2022-07-06T17:24:06;1.48;;;0.90;;
29006;SDS011;16104;48.642;9.008;2022-07-06T17:29:03;3.53;;;1.25;;
29006;SDS011;16104;48.642;9.008;2022-07-06T17:33:58;2.45;;;1.10;;
29006;SDS011;16104;48.642;9.008;2022-07-06T17:38:54;1.80;;;1.08;;
29006;SDS011;16104;48.642;9.008;2022-07-06T17:43:49;2.15;;;1.58;;
29006;SDS011;16104;48.642;9.008;2022-07-06T17:48:45;2.03;;;1.40;;
29006;SDS011;16104;48.642;9.008;2022-07-06T17:53:41;2.13;;;1.45;;
29006;SDS011;16104;48.642;9.008;2022-07-06T17:58:36;3.45;;;1.30;;
29006;SDS011;16104;48.642;9.008;2022-07-06T18:03:32;2.10;;;1.40;;
29006;SDS011;16104;48.642;9.008;2022-07-06T18:08:27;1.80;;;1.50;;
29006;SDS011;16104;48.642;9.008;2022-07-06T18:13:23;4.43;;;1.50;;
29006;SDS011;16104;48.642;9.008;2022-07-06T18:18:19;2.67;;;1.80;;
29006;SDS011;16104;48.642;9.008;2022-07-06T18:23:14;2.10;;;1.75;;
29006;SDS011;16104;48.642;9.008;2022-07-06T18:28:10;3.25;;;1.98;;
29006;SDS011;16104;48.642;9.008;2022-07-06T18:33:12;2.35;;;2.10;;
29006;SDS011;16104;48.642;9.008;2022-07-06T18:38:08;3.47;;;2.25;;
29006;SDS011;16104;48.642;9.008;2022-07-06T18:43:04;8.25;;;2.45;;
29006;SDS011;16104;48.642;9.008;2022-07-06T18:48:00;2.95;;;2.20;;
29006;SDS011;16104;48.642;9.008;2022-07-06T18:52:56;2.88;;;2.10;;
29006;SDS011;16104;48.642;9.008;2022-07-06T18:57:51;3.80;;;2.10;;
29006;SDS011;16104;48.642;9.008;2022-07-06T19:02:47;4.78;;;2.08;;
29006;SDS011;16104;48.642;9.008;2022-07-06T19:07:42;2.35;;;1.80;;
29006;SDS011;16104;48.642;9.008;2022-07-06T19:12:38;4.32;;;1.92;;
29006;SDS011;16104;48.642;9.008;2022-07-06T19:17:33;2.90;;;1.80;;
29006;SDS011;16104;48.642;9.008;2022-07-06T19:22:29;3.58;;;2.10;;
29006;SDS011;16104;48.642;9.008;2022-07-06T19:27:24;2.00;;;1.80;;
29006;SDS011;16104;48.642;9.008;2022-07-06T19:32:20;4.15;;;1.77;;
29006;SDS011;16104;48.642;9.008;2022-07-06T19:37:16;1.50;;;1.40;;
29006;SDS011;16104;48.642;9.008;2022-07-06T19:42:11;4.15;;;1.70;;
29006;SDS011;16104;48.642;9.008;2022-07-06T19:47:07;2.17;;;1.38;;
29006;SDS011;16104;48.642;9.008;2022-07-06T19:52:02;2.90;;;1.42;;
29006;SDS011;16104;48.642;9.008;2022-07-06T19:56:59;5.15;;;1.73;;
29006;SDS011;16104;48.642;9.008;2022-07-06T20:01:55;4.22;;;1.50;;
29006;SDS011;16104;48.642;9.008;2022-07-06T20:06:51;4.22;;;1.73;;
29006;SDS011;16104;48.642;9.008;2022-07-06T20:11:47;5.72;;;1.30;;
29006;SDS011;16104;48.642;9.008;2022-07-06T20:16:43;4.13;;;1.40;;
29006;SDS011;16104;48.642;9.008;2022-07-06T20:21:38;3.72;;;1.30;;
29006;SDS011;16104;48.642;9.008;2022-07-06T20:26:34;2.05;;;1.20;;
29006;SDS011;16104;48.642;9.008;2022-07-06T20:31:29;2.20;;;1.10;;
29006;SDS011;16104;48.642;9.008;2022-07-06T20:36:25;3.45;;;1.63;;
29006;SDS011;16104;48.642;9.008;2022-07-06T20:41:21;2.63;;;1.30;;
29006;SDS011;16104;48.642;9.008;2022-07-06T20:46:16;4.75;;;1.55;;
29006;SDS011;16104;48.642;9.008;2022-07-06T20:51:12;4.82;;;1.52;;
29006;SDS011;16104;48.642;9.008;2022-07-06T20:56:07;4.43;;;1.45;;
29006;SDS011;16104;48.642;9.008;2022-07-06T21:01:03;3.83;;;1.25;;
29006;SDS011;16104;48.642;9.008;2022-07-06T21:05:59;1.33;;;1.10;;
29006;SDS011;16104;48.642;9.008;2022-07-06T21:10:54;2.88;;;1.33;;
29006;SDS011;16104;48.642;9.008;2022-07-06T21:15:50;3.63;;;1.25;;
29006;SDS011;16104;48.642;9.008;2022-07-06T21:20:45;3.38;;;1.10;;
29006;SDS011;16104;48.642;9.008;2022-07-06T21:25:41;3.30;;;1.50;;
29006;SDS011;16104;48.642;9.008;2022-07-06T21:30:36;1.90;;;1.15;;
29006;SDS011;16104;48.642;9.008;2022-07-06T21:35:32;2.47;;;1.20;;
29006;SDS011;16104;48.642;9.008;2022-07-06T21:40:27;2.53;;;1.20;;
29006;SDS011;16104;48.642;9.008;2022-07-06T21:45:23;3.47;;;1.48;;
29006;SDS011;16104;48.642;9.008;2022-07-06T21:50:18;1.95;;;1.27;;
29006;SDS011;16104;48.642;9.008;2022-07-06T21:55:14;2.33;;;1.30;;
29006;SDS011;16104;48.642;9.008;2022-07-06T22:00:09;1.65;;;1.00;;
29006;SDS011;16104;48.642;9.008;2022-07-06T22:05:07;2.80;;;1.50;;
29006;SDS011;16104;48.642;9.008;2022-07-06T22:10:04;2.38;;;1.42;;
29006;SDS011;16104;48.642;9.008;2022-07-06T22:15:00;3.08;;;1.40;;
29006;SDS011;16104;48.642;9.008;2022-07-06T22:19:56;1.40;;;1.20;;
29006;SDS011;16104;48.642;9.008;2022-07-06T22:24:56;4.97;;;1.27;;
29006;SDS011;16104;48.642;9.008;2022-07-06T22:29:51;2.70;;;1.20;;
29006;SDS011;16104;48.642;9.008;2022-07-06T22:34:47;3.10;;;1.42;;
29006;SDS011;16104;48.642;9.008;2022-07-06T22:39:42;6.95;;;1.67;;
29006;SDS011;16104;48.642;9.008;2022-07-06T22:44:38;2.55;;;1.40;;
29006;SDS011;16104;48.642;9.008;2022-07-06T22:49:33;5.50;;;1.80;;
29006;SDS011;16104;48.642;9.008;2022-07-06T22:54:29;3.15;;;1.30;;
29006;SDS011;16104;48.642;9.008;2022-07-06T22:59:24;3.45;;;1.30;;
29006;SDS011;16104;48.642;9.008;2022-07-06T23:04:20;3.67;;;1.20;;
29006;SDS011;16104;48.642;9.008;2022-07-06T23:09:15;2.17;;;1.35;;
29006;SDS011;16104;48.642;9.008;2022-07-06T23:14:11;2.75;;;1.20;;
29006;SDS011;16104;48.642;9.008;2022-07-06T23:19:06;2.60;;;1.52;;
29006;SDS011;16104;48.642;9.008;2022-07-06T23:24:02;3.47;;;1.40;;
29006;SDS011;16104;48.642;9.008;2022-07-06T23:28:58;3.08;;;1.67;;
29006;SDS011;16104;48.642;9.008;2022-07-06T23:33:54;5.05;;;1.70;;
29006;SDS011;16104;48.642;9.008;2022-07-06T23:38:49;3.67;;;1.90;;
29006;SDS011;16104;48.642;9.008;2022-07-06T23:43:46;2.03;;;1.45;;
29006;SDS011;16104;48.642;9.008;2022-07-06T23:48:42;4.18;;;1.65;;
29006;SDS011;16104;48.642;9.008;2022-07-06T23:53:37;2.50;;;1.75;;
29006;SDS011;16104;48.642;9.008;2022-07-06T23:58:33;2.85;;;1.42;;
